sensor_id;sensor_type;location;lat;lon;timestamp;P1;durP1;ratioP1;P2;durP2;ratioP2
77625;SDS011;66794;43.764;10.436;2023-08-06T00:02:01;7.43;;;3.42;;
77625;SDS011;66794;43.764;10.436;2023-08-06T00:04:47;8.05;;;3.67;;
77625;SDS011;66794;43.764;10.436;2023-08-06T00:07:32;6.70;;;3.22;;
77625;SDS011;66794;43.764;10.436;2023-08-06T00:10:18;6.95;;;3.10;;
77625;SDS011;66794;43.764;10.436;2023-08-06T00:13:04;5.68;;;2.95;;
77625;SDS011;66794;43.764;10.436;2023-08-06T00:15:50;5.80;;;3.35;;
77625;SDS011;66794;43.764;10.436;2023-08-06T00:18:35;6.72;;;3.08;;
77625;SDS011;66794;43.764;10.436;2023-08-06T00:21:21;7.20;;;3.00;;
77625;SDS011;66794;43.764;10.436;2023-08-06T00:24:07;7.13;;;2.88;;
77625;SDS011;66794;43.764;10.436;2023-08-06T00:26:53;6.25;;;3.03;;
77625;SDS011;66794;43.764;10.436;2023-08-06T00:29:39;6.93;;;3.13;;
77625;SDS011;66794;43.764;10.436;2023-08-06T00:32:24;7.32;;;2.95;;
77625;SDS011;66794;43.764;10.436;2023-08-06T00:35:10;6.53;;;2.63;;
77625;SDS011;66794;43.764;10.436;2023-08-06T00:37:56;8.45;;;3.60;;
77625;SDS011;66794;43.764;10.436;2023-08-06T00:40:42;10.40;;;3.83;;
77625;SDS011;66794;43.764;10.436;2023-08-06T00:43:28;8.88;;;3.58;;
77625;SDS011;66794;43.764;10.436;2023-08-06T00:46:13;11.02;;;3.42;;
77625;SDS011;66794;43.764;10.436;2023-08-06T00:48:59;9.68;;;3.55;;
77625;SDS011;66794;43.764;10.436;2023-08-06T00:51:45;9.02;;;2.83;;
77625;SDS011;66794;43.764;10.436;2023-08-06T00:54:32;8.10;;;3.10;;
77625;SDS011;66794;43.764;10.436;2023-08-06T00:57:19;12.57;;;3.38;;
77625;SDS011;66794;43.764;10.436;2023-08-06T01:00:09;10.65;;;3.17;;
77625;SDS011;66794;43.764;10.436;2023-08-06T01:02:56;13.13;;;3.40;;
77625;SDS011;66794;43.764;10.436;2023-08-06T01:05:42;12.55;;;3.72;;
77625;SDS011;66794;43.764;10.436;2023-08-06T01:15:29;13.40;;;3.88;;
77625;SDS011;66794;43.764;10.436;2023-08-06T01:18:10;13.68;;;5.38;;
77625;SDS011;66794;43.764;10.436;2023-08-06T01:20:56;18.65;;;7.35;;
77625;SDS011;66794;43.764;10.436;2023-08-06T01:23:42;24.42;;;8.25;;
77625;SDS011;66794;43.764;10.436;2023-08-06T01:26:30;22.27;;;8.45;;
77625;SDS011;66794;43.764;10.436;2023-08-06T01:29:23;59.75;;;19.85;;
77625;SDS011;66794;43.764;10.436;2023-08-06T01:32:20;26.92;;;9.13;;
77625;SDS011;66794;43.764;10.436;2023-08-06T01:35:07;24.20;;;7.38;;
77625;SDS011;66794;43.764;10.436;2023-08-06T01:37:55;17.98;;;6.30;;
77625;SDS011;66794;43.764;10.436;2023-08-06T01:40:41;14.68;;;5.70;;
77625;SDS011;66794;43.764;10.436;2023-08-06T01:43:27;24.77;;;10.70;;
77625;SDS011;66794;43.764;10.436;2023-08-06T01:46:13;48.08;;;24.02;;
77625;SDS011;66794;43.764;10.436;2023-08-06T01:48:59;68.30;;;31.52;;
77625;SDS011;66794;43.764;10.436;2023-08-06T01:51:44;64.53;;;30.27;;
77625;SDS011;66794;43.764;10.436;2023-08-06T01:54:30;56.33;;;26.25;;
77625;SDS011;66794;43.764;10.436;2023-08-06T01:57:16;32.65;;;15.02;;
77625;SDS011;66794;43.764;10.436;2023-08-06T02:00:02;17.65;;;8.82;;
77625;SDS011;66794;43.764;10.436;2023-08-06T02:02:49;20.42;;;8.90;;
77625;SDS011;66794;43.764;10.436;2023-08-06T02:05:34;12.38;;;7.03;;
77625;SDS011;66794;43.764;10.436;2023-08-06T02:08:20;16.90;;;6.88;;
77625;SDS011;66794;43.764;10.436;2023-08-06T02:11:06;11.05;;;5.90;;
77625;SDS011;66794;43.764;10.436;2023-08-06T02:13:51;11.68;;;4.70;;
77625;SDS011;66794;43.764;10.436;2023-08-06T02:16:37;8.88;;;4.20;;
77625;SDS011;66794;43.764;10.436;2023-08-06T02:19:23;7.63;;;4.32;;
77625;SDS011;66794;43.764;10.436;2023-08-06T02:22:08;7.38;;;4.30;;
77625;SDS011;66794;43.764;10.436;2023-08-06T02:24:54;10.93;;;4.60;;
77625;SDS011;66794;43.764;10.436;2023-08-06T02:27:40;10.40;;;4.50;;
77625;SDS011;66794;43.764;10.436;2023-08-06T02:30:26;10.40;;;4.00;;
77625;SDS011;66794;43.764;10.436;2023-08-06T02:33:11;13.32;;;4.03;;
77625;SDS011;66794;43.764;10.436;2023-08-06T02:36:03;9.40;;;3.45;;
77625;SDS011;66794;43.764;10.436;2023-08-06T02:38:49;8.05;;;3.67;;
77625;SDS011;66794;43.764;10.436;2023-08-06T02:41:35;9.70;;;3.78;;
77625;SDS011;66794;43.764;10.436;2023-08-06T02:44:21;6.07;;;3.75;;
77625;SDS011;66794;43.764;10.436;2023-08-06T02:47:07;7.60;;;3.75;;
77625;SDS011;66794;43.764;10.436;2023-08-06T02:49:52;10.23;;;4.00;;
77625;SDS011;66794;43.764;10.436;2023-08-06T02:52:38;12.02;;;4.18;;
77625;SDS011;66794;43.764;10.436;2023-08-06T02:55:25;13.45;;;4.28;;
77625;SDS011;66794;43.764;10.436;2023-08-06T02:58:11;9.45;;;3.80;;
77625;SDS011;66794;43.764;10.436;2023-08-06T03:01:03;7.90;;;3.80;;
77625;SDS011;66794;43.764;10.436;2023-08-06T03:03:50;7.55;;;3.92;;
77625;SDS011;66794;43.764;10.436;2023-08-06T03:06:36;9.63;;;3.42;;
77625;SDS011;66794;43.764;10.436;2023-08-06T03:09:22;10.32;;;3.97;;
77625;SDS011;66794;43.764;10.436;2023-08-06T03:12:07;11.30;;;4.35;;
77625;SDS011;66794;43.764;10.436;2023-08-06T03:14:53;8.10;;;4.00;;
77625;SDS011;66794;43.764;10.436;2023-08-06T03:17:39;7.35;;;3.70;;
77625;SDS011;66794;43.764;10.436;2023-08-06T03:20:25;9.98;;;4.30;;
77625;SDS011;66794;43.764;10.436;2023-08-06T03:23:11;10.13;;;4.13;;
77625;SDS011;66794;43.764;10.436;2023-08-06T03:26:02;14.38;;;4.53;;
77625;SDS011;66794;43.764;10.436;2023-08-06T03:28:48;11.63;;;4.25;;
77625;SDS011;66794;43.764;10.436;2023-08-06T03:31:34;11.25;;;4.53;;
77625;SDS011;66794;43.764;10.436;2023-08-06T03:34:20;16.25;;;6.18;;
77625;SDS011;66794;43.764;10.436;2023-08-06T03:37:06;23.80;;;8.15;;
77625;SDS011;66794;43.764;10.436;2023-08-06T03:39:51;18.25;;;7.50;;
77625;SDS011;66794;43.764;10.436;2023-08-06T03:42:37;18.42;;;8.70;;
77625;SDS011;66794;43.764;10.436;2023-08-06T03:45:23;14.23;;;7.60;;
77625;SDS011;66794;43.764;10.436;2023-08-06T03:48:09;21.10;;;7.85;;
77625;SDS011;66794;43.764;10.436;2023-08-06T03:50:54;11.77;;;6.03;;
77625;SDS011;66794;43.764;10.436;2023-08-06T03:53:40;11.70;;;6.10;;
77625;SDS011;66794;43.764;10.436;2023-08-06T03:56:26;11.68;;;6.07;;
77625;SDS011;66794;43.764;10.436;2023-08-06T03:59:11;12.65;;;6.00;;
77625;SDS011;66794;43.764;10.436;2023-08-06T04:01:57;11.05;;;5.68;;
77625;SDS011;66794;43.764;10.436;2023-08-06T04:04:43;8.77;;;5.20;;
77625;SDS011;66794;43.764;10.436;2023-08-06T04:07:29;6.97;;;4.82;;
77625;SDS011;66794;43.764;10.436;2023-08-06T04:10:15;9.20;;;4.97;;
77625;SDS011;66794;43.764;10.436;2023-08-06T04:13:00;9.43;;;5.05;;
77625;SDS011;66794;43.764;10.436;2023-08-06T04:15:46;7.40;;;4.22;;
77625;SDS011;66794;43.764;10.436;2023-08-06T04:18:32;9.82;;;4.38;;
77625;SDS011;66794;43.764;10.436;2023-08-06T04:21:18;7.05;;;4.07;;
77625;SDS011;66794;43.764;10.436;2023-08-06T04:24:04;9.77;;;4.28;;
77625;SDS011;66794;43.764;10.436;2023-08-06T04:26:50;7.90;;;4.70;;
77625;SDS011;66794;43.764;10.436;2023-08-06T04:29:35;8.07;;;4.80;;
77625;SDS011;66794;43.764;10.436;2023-08-06T04:32:22;6.90;;;4.43;;
77625;SDS011;66794;43.764;10.436;2023-08-06T04:35:07;6.35;;;4.20;;
77625;SDS011;66794;43.764;10.436;2023-08-06T04:37:53;6.32;;;4.10;;
77625;SDS011;66794;43.764;10.436;2023-08-06T04:40:39;9.65;;;3.80;;
77625;SDS011;66794;43.764;10.436;2023-08-06T04:43:24;8.80;;;3.90;;
77625;SDS011;66794;43.764;10.436;2023-08-06T04:46:10;9.35;;;4.25;;
77625;SDS011;66794;43.764;10.436;2023-08-06T04:48:56;9.05;;;4.13;;
77625;SDS011;66794;43.764;10.436;2023-08-06T04:51:42;6.53;;;3.85;;
77625;SDS011;66794;43.764;10.436;2023-08-06T04:54:27;8.43;;;3.78;;
77625;SDS011;66794;43.764;10.436;2023-08-06T04:57:13;6.65;;;3.63;;
77625;SDS011;66794;43.764;10.436;2023-08-06T04:59:59;10.40;;;3.90;;
77625;SDS011;66794;43.764;10.436;2023-08-06T05:02:45;8.45;;;3.83;;
77625;SDS011;66794;43.764;10.436;2023-08-06T05:05:30;7.18;;;3.83;;
77625;SDS011;66794;43.764;10.436;2023-08-06T05:08:16;9.73;;;4.20;;
77625;SDS011;66794;43.764;10.436;2023-08-06T05:11:02;7.32;;;3.95;;
77625;SDS011;66794;43.764;10.436;2023-08-06T05:13:48;7.43;;;4.15;;
77625;SDS011;66794;43.764;10.436;2023-08-06T05:16:33;5.15;;;3.92;;
77625;SDS011;66794;43.764;10.436;2023-08-06T05:19:19;9.02;;;3.70;;
77625;SDS011;66794;43.764;10.436;2023-08-06T05:22:05;8.35;;;4.20;;
77625;SDS011;66794;43.764;10.436;2023-08-06T05:24:51;7.63;;;4.20;;
77625;SDS011;66794;43.764;10.436;2023-08-06T05:27:36;6.50;;;3.75;;
77625;SDS011;66794;43.764;10.436;2023-08-06T05:30:22;7.72;;;3.92;;
77625;SDS011;66794;43.764;10.436;2023-08-06T05:33:08;7.28;;;3.67;;
77625;SDS011;66794;43.764;10.436;2023-08-06T05:35:54;7.25;;;4.60;;
77625;SDS011;66794;43.764;10.436;2023-08-06T05:38:39;7.15;;;4.40;;
77625;SDS011;66794;43.764;10.436;2023-08-06T05:41:25;8.70;;;4.10;;
77625;SDS011;66794;43.764;10.436;2023-08-06T05:44:11;59.72;;;27.35;;
77625;SDS011;66794;43.764;10.436;2023-08-06T05:46:57;39.50;;;18.27;;
77625;SDS011;66794;43.764;10.436;2023-08-06T05:49:42;18.27;;;8.88;;
77625;SDS011;66794;43.764;10.436;2023-08-06T05:52:28;16.55;;;5.93;;
77625;SDS011;66794;43.764;10.436;2023-08-06T05:55:14;12.07;;;7.50;;
77625;SDS011;66794;43.764;10.436;2023-08-06T05:58:00;6.28;;;3.70;;
77625;SDS011;66794;43.764;10.436;2023-08-06T06:00:45;6.38;;;4.10;;
77625;SDS011;66794;43.764;10.436;2023-08-06T06:03:31;7.90;;;3.97;;
77625;SDS011;66794;43.764;10.436;2023-08-06T06:06:17;5.35;;;3.78;;
77625;SDS011;66794;43.764;10.436;2023-08-06T06:09:03;9.35;;;4.03;;
77625;SDS011;66794;43.764;10.436;2023-08-06T06:11:49;8.02;;;3.92;;
77625;SDS011;66794;43.764;10.436;2023-08-06T06:14:35;6.82;;;4.57;;
77625;SDS011;66794;43.764;10.436;2023-08-06T06:17:21;7.53;;;4.45;;
77625;SDS011;66794;43.764;10.436;2023-08-06T06:20:07;8.00;;;4.20;;
77625;SDS011;66794;43.764;10.436;2023-08-06T06:22:53;8.18;;;4.25;;
77625;SDS011;66794;43.764;10.436;2023-08-06T06:25:57;9.18;;;4.20;;
77625;SDS011;66794;43.764;10.436;2023-08-06T06:28:42;9.85;;;4.60;;
77625;SDS011;66794;43.764;10.436;2023-08-06T06:31:28;9.45;;;4.40;;
77625;SDS011;66794;43.764;10.436;2023-08-06T06:34:14;6.10;;;4.35;;
77625;SDS011;66794;43.764;10.436;2023-08-06T06:37:00;12.77;;;5.50;;
77625;SDS011;66794;43.764;10.436;2023-08-06T06:39:46;9.02;;;5.00;;
77625;SDS011;66794;43.764;10.436;2023-08-06T06:42:31;24.35;;;9.77;;
77625;SDS011;66794;43.764;10.436;2023-08-06T06:45:17;28.60;;;10.52;;
77625;SDS011;66794;43.764;10.436;2023-08-06T06:48:03;25.15;;;8.98;;
77625;SDS011;66794;43.764;10.436;2023-08-06T06:50:49;14.20;;;6.53;;
77625;SDS011;66794;43.764;10.436;2023-08-06T06:53:34;12.68;;;4.70;;
77625;SDS011;66794;43.764;10.436;2023-08-06T06:56:20;12.57;;;4.47;;
77625;SDS011;66794;43.764;10.436;2023-08-06T06:59:06;11.43;;;4.43;;
77625;SDS011;66794;43.764;10.436;2023-08-06T07:01:52;7.70;;;4.13;;
77625;SDS011;66794;43.764;10.436;2023-08-06T07:04:37;9.18;;;3.50;;
77625;SDS011;66794;43.764;10.436;2023-08-06T07:07:23;6.85;;;3.40;;
77625;SDS011;66794;43.764;10.436;2023-08-06T07:10:09;10.40;;;3.95;;
77625;SDS011;66794;43.764;10.436;2023-08-06T07:12:55;9.55;;;3.25;;
77625;SDS011;66794;43.764;10.436;2023-08-06T07:15:41;8.75;;;3.20;;
77625;SDS011;66794;43.764;10.436;2023-08-06T07:18:26;10.52;;;3.08;;
77625;SDS011;66794;43.764;10.436;2023-08-06T07:21:12;13.95;;;3.60;;
77625;SDS011;66794;43.764;10.436;2023-08-06T07:23:58;13.75;;;4.18;;
77625;SDS011;66794;43.764;10.436;2023-08-06T07:26:45;17.90;;;3.97;;
77625;SDS011;66794;43.764;10.436;2023-08-06T07:29:30;16.58;;;4.22;;
77625;SDS011;66794;43.764;10.436;2023-08-06T07:32:16;18.15;;;4.03;;
77625;SDS011;66794;43.764;10.436;2023-08-06T07:35:02;21.30;;;4.72;;
77625;SDS011;66794;43.764;10.436;2023-08-06T07:37:48;20.70;;;3.97;;
77625;SDS011;66794;43.764;10.436;2023-08-06T07:40:35;19.77;;;4.70;;
77625;SDS011;66794;43.764;10.436;2023-08-06T07:43:21;17.85;;;4.75;;
77625;SDS011;66794;43.764;10.436;2023-08-06T07:46:07;20.10;;;4.57;;
77625;SDS011;66794;43.764;10.436;2023-08-06T07:48:53;15.13;;;4.18;;
77625;SDS011;66794;43.764;10.436;2023-08-06T07:51:38;18.38;;;4.90;;
77625;SDS011;66794;43.764;10.436;2023-08-06T07:54:24;15.80;;;5.05;;
77625;SDS011;66794;43.764;10.436;2023-08-06T07:57:10;17.88;;;4.45;;
77625;SDS011;66794;43.764;10.436;2023-08-06T07:59:56;16.73;;;4.55;;
77625;SDS011;66794;43.764;10.436;2023-08-06T08:02:42;22.10;;;4.20;;
77625;SDS011;66794;43.764;10.436;2023-08-06T08:05:27;19.13;;;4.97;;
77625;SDS011;66794;43.764;10.436;2023-08-06T08:08:13;17.50;;;4.25;;
77625;SDS011;66794;43.764;10.436;2023-08-06T08:10:59;18.17;;;5.18;;
77625;SDS011;66794;43.764;10.436;2023-08-06T08:13:46;20.15;;;4.82;;
77625;SDS011;66794;43.764;10.436;2023-08-06T08:16:31;21.13;;;4.88;;
77625;SDS011;66794;43.764;10.436;2023-08-06T08:19:17;22.95;;;5.10;;
77625;SDS011;66794;43.764;10.436;2023-08-06T08:22:03;25.20;;;5.35;;
77625;SDS011;66794;43.764;10.436;2023-08-06T08:24:49;25.75;;;6.00;;
77625;SDS011;66794;43.764;10.436;2023-08-06T08:27:34;17.92;;;4.25;;
77625;SDS011;66794;43.764;10.436;2023-08-06T08:30:21;23.00;;;5.32;;
77625;SDS011;66794;43.764;10.436;2023-08-06T08:33:07;21.35;;;5.35;;
77625;SDS011;66794;43.764;10.436;2023-08-06T08:35:53;20.63;;;4.57;;
77625;SDS011;66794;43.764;10.436;2023-08-06T08:38:39;21.08;;;4.60;;
77625;SDS011;66794;43.764;10.436;2023-08-06T08:41:24;22.08;;;4.57;;
77625;SDS011;66794;43.764;10.436;2023-08-06T08:44:13;20.45;;;4.45;;
77625;SDS011;66794;43.764;10.436;2023-08-06T08:47:02;24.05;;;5.60;;
77625;SDS011;66794;43.764;10.436;2023-08-06T08:49:49;27.52;;;5.65;;
77625;SDS011;66794;43.764;10.436;2023-08-06T08:52:39;22.27;;;5.07;;
77625;SDS011;66794;43.764;10.436;2023-08-06T08:55:25;23.80;;;5.63;;
77625;SDS011;66794;43.764;10.436;2023-08-06T08:58:12;25.30;;;5.30;;
77625;SDS011;66794;43.764;10.436;2023-08-06T09:00:58;23.65;;;7.78;;
77625;SDS011;66794;43.764;10.436;2023-08-06T09:03:45;20.55;;;5.00;;
77625;SDS011;66794;43.764;10.436;2023-08-06T09:06:32;21.95;;;5.10;;
77625;SDS011;66794;43.764;10.436;2023-08-06T09:09:31;22.35;;;5.20;;
77625;SDS011;66794;43.764;10.436;2023-08-06T09:12:19;20.17;;;5.05;;
77625;SDS011;66794;43.764;10.436;2023-08-06T09:15:06;21.63;;;5.22;;
77625;SDS011;66794;43.764;10.436;2023-08-06T09:17:55;27.33;;;5.22;;
77625;SDS011;66794;43.764;10.436;2023-08-06T09:20:41;22.10;;;5.00;;
77625;SDS011;66794;43.764;10.436;2023-08-06T09:23:28;22.75;;;5.10;;
77625;SDS011;66794;43.764;10.436;2023-08-06T09:26:17;25.02;;;5.63;;
77625;SDS011;66794;43.764;10.436;2023-08-06T09:29:04;24.13;;;5.45;;
77625;SDS011;66794;43.764;10.436;2023-08-06T09:31:52;28.02;;;6.43;;
77625;SDS011;66794;43.764;10.436;2023-08-06T09:34:39;22.13;;;5.03;;
77625;SDS011;66794;43.764;10.436;2023-08-06T09:37:30;21.08;;;5.15;;
77625;SDS011;66794;43.764;10.436;2023-08-06T09:40:30;23.83;;;5.25;;
77625;SDS011;66794;43.764;10.436;2023-08-06T09:43:18;21.70;;;5.35;;
77625;SDS011;66794;43.764;10.436;2023-08-06T09:46:10;25.40;;;5.30;;
77625;SDS011;66794;43.764;10.436;2023-08-06T09:48:58;19.52;;;5.13;;
77625;SDS011;66794;43.764;10.436;2023-08-06T09:51:44;20.33;;;4.80;;
77625;SDS011;66794;43.764;10.436;2023-08-06T09:54:31;22.65;;;5.20;;
77625;SDS011;66794;43.764;10.436;2023-08-06T09:57:19;24.27;;;5.05;;
77625;SDS011;66794;43.764;10.436;2023-08-06T10:00:05;17.27;;;5.63;;
77625;SDS011;66794;43.764;10.436;2023-08-06T10:02:54;21.85;;;4.90;;
77625;SDS011;66794;43.764;10.436;2023-08-06T10:05:44;18.75;;;4.70;;
77625;SDS011;66794;43.764;10.436;2023-08-06T10:08:30;22.63;;;5.50;;
77625;SDS011;66794;43.764;10.436;2023-08-06T10:11:16;20.27;;;5.00;;
77625;SDS011;66794;43.764;10.436;2023-08-06T10:14:20;17.23;;;5.85;;
77625;SDS011;66794;43.764;10.436;2023-08-06T10:17:10;17.60;;;5.13;;
77625;SDS011;66794;43.764;10.436;2023-08-06T10:19:56;14.77;;;4.75;;
77625;SDS011;66794;43.764;10.436;2023-08-06T10:22:44;18.05;;;4.85;;
77625;SDS011;66794;43.764;10.436;2023-08-06T10:25:31;15.82;;;4.10;;
77625;SDS011;66794;43.764;10.436;2023-08-06T10:28:20;18.00;;;4.78;;
77625;SDS011;66794;43.764;10.436;2023-08-06T10:31:06;17.92;;;4.72;;
77625;SDS011;66794;43.764;10.436;2023-08-06T10:33:52;14.13;;;4.18;;
77625;SDS011;66794;43.764;10.436;2023-08-06T10:36:38;15.00;;;4.05;;
77625;SDS011;66794;43.764;10.436;2023-08-06T10:39:24;13.45;;;3.80;;
77625;SDS011;66794;43.764;10.436;2023-08-06T10:42:19;14.45;;;3.97;;
77625;SDS011;66794;43.764;10.436;2023-08-06T10:45:12;9.88;;;3.53;;
77625;SDS011;66794;43.764;10.436;2023-08-06T10:48:00;11.35;;;3.90;;
77625;SDS011;66794;43.764;10.436;2023-08-06T10:50:46;16.55;;;4.05;;
77625;SDS011;66794;43.764;10.436;2023-08-06T10:53:31;14.05;;;3.83;;
77625;SDS011;66794;43.764;10.436;2023-08-06T10:56:18;11.38;;;4.50;;
77625;SDS011;66794;43.764;10.436;2023-08-06T10:59:07;12.98;;;3.90;;
77625;SDS011;66794;43.764;10.436;2023-08-06T11:01:55;10.63;;;3.63;;
77625;SDS011;66794;43.764;10.436;2023-08-06T11:04:42;11.70;;;3.50;;
77625;SDS011;66794;43.764;10.436;2023-08-06T11:07:29;10.73;;;3.30;;
77625;SDS011;66794;43.764;10.436;2023-08-06T11:10:15;9.07;;;3.35;;
77625;SDS011;66794;43.764;10.436;2023-08-06T11:13:01;9.52;;;3.60;;
77625;SDS011;66794;43.764;10.436;2023-08-06T11:15:49;11.68;;;3.55;;
77625;SDS011;66794;43.764;10.436;2023-08-06T11:18:34;14.07;;;3.72;;
77625;SDS011;66794;43.764;10.436;2023-08-06T11:21:21;10.00;;;3.22;;
77625;SDS011;66794;43.764;10.436;2023-08-06T11:24:08;11.02;;;3.15;;
77625;SDS011;66794;43.764;10.436;2023-08-06T11:26:55;13.65;;;3.75;;
77625;SDS011;66794;43.764;10.436;2023-08-06T11:29:41;9.52;;;3.20;;
77625;SDS011;66794;43.764;10.436;2023-08-06T11:32:27;13.32;;;3.70;;
77625;SDS011;66794;43.764;10.436;2023-08-06T11:35:14;10.77;;;3.72;;
77625;SDS011;66794;43.764;10.436;2023-08-06T11:38:00;9.80;;;3.53;;
77625;SDS011;66794;43.764;10.436;2023-08-06T11:40:47;12.27;;;4.03;;
77625;SDS011;66794;43.764;10.436;2023-08-06T11:43:33;10.60;;;3.20;;
77625;SDS011;66794;43.764;10.436;2023-08-06T11:46:19;12.95;;;3.83;;
77625;SDS011;66794;43.764;10.436;2023-08-06T11:49:04;12.00;;;3.33;;
77625;SDS011;66794;43.764;10.436;2023-08-06T11:51:50;12.95;;;3.83;;
77625;SDS011;66794;43.764;10.436;2023-08-06T11:54:36;12.60;;;3.75;;
77625;SDS011;66794;43.764;10.436;2023-08-06T11:57:24;11.93;;;4.45;;
77625;SDS011;66794;43.764;10.436;2023-08-06T12:00:11;9.30;;;3.72;;
77625;SDS011;66794;43.764;10.436;2023-08-06T12:02:58;11.35;;;4.00;;
77625;SDS011;66794;43.764;10.436;2023-08-06T12:05:44;13.40;;;3.70;;
77625;SDS011;66794;43.764;10.436;2023-08-06T12:08:32;15.95;;;4.07;;
77625;SDS011;66794;43.764;10.436;2023-08-06T12:11:20;13.40;;;3.53;;
77625;SDS011;66794;43.764;10.436;2023-08-06T12:14:07;15.80;;;4.38;;
77625;SDS011;66794;43.764;10.436;2023-08-06T12:16:52;13.48;;;3.97;;
77625;SDS011;66794;43.764;10.436;2023-08-06T12:19:38;13.95;;;4.15;;
77625;SDS011;66794;43.764;10.436;2023-08-06T12:22:24;14.02;;;4.35;;
77625;SDS011;66794;43.764;10.436;2023-08-06T12:25:10;15.25;;;4.45;;
77625;SDS011;66794;43.764;10.436;2023-08-06T12:27:59;23.45;;;5.13;;
77625;SDS011;66794;43.764;10.436;2023-08-06T12:30:45;23.35;;;4.20;;
77625;SDS011;66794;43.764;10.436;2023-08-06T12:33:31;23.02;;;5.38;;
77625;SDS011;66794;43.764;10.436;2023-08-06T12:36:17;21.27;;;5.55;;
77625;SDS011;66794;43.764;10.436;2023-08-06T12:39:02;17.27;;;4.65;;
77625;SDS011;66794;43.764;10.436;2023-08-06T12:41:48;18.23;;;4.50;;
77625;SDS011;66794;43.764;10.436;2023-08-06T12:44:34;21.13;;;4.78;;
77625;SDS011;66794;43.764;10.436;2023-08-06T12:47:20;22.38;;;4.95;;
77625;SDS011;66794;43.764;10.436;2023-08-06T12:50:06;24.25;;;4.95;;
77625;SDS011;66794;43.764;10.436;2023-08-06T12:52:52;22.20;;;4.57;;
77625;SDS011;66794;43.764;10.436;2023-08-06T12:55:38;16.75;;;4.60;;
77625;SDS011;66794;43.764;10.436;2023-08-06T12:58:26;22.40;;;5.20;;
77625;SDS011;66794;43.764;10.436;2023-08-06T13:01:11;19.80;;;4.88;;
77625;SDS011;66794;43.764;10.436;2023-08-06T13:03:57;20.02;;;5.03;;
77625;SDS011;66794;43.764;10.436;2023-08-06T13:06:43;21.60;;;5.07;;
77625;SDS011;66794;43.764;10.436;2023-08-06T13:09:29;20.27;;;4.70;;
77625;SDS011;66794;43.764;10.436;2023-08-06T13:12:16;20.50;;;5.40;;
77625;SDS011;66794;43.764;10.436;2023-08-06T13:15:04;17.35;;;4.40;;
77625;SDS011;66794;43.764;10.436;2023-08-06T13:17:50;17.33;;;5.43;;
77625;SDS011;66794;43.764;10.436;2023-08-06T13:20:38;21.05;;;4.28;;
77625;SDS011;66794;43.764;10.436;2023-08-06T13:23:25;19.63;;;4.80;;
77625;SDS011;66794;43.764;10.436;2023-08-06T13:26:11;18.80;;;4.75;;
77625;SDS011;66794;43.764;10.436;2023-08-06T13:28:57;15.35;;;4.28;;
77625;SDS011;66794;43.764;10.436;2023-08-06T13:31:44;16.40;;;4.55;;
77625;SDS011;66794;43.764;10.436;2023-08-06T13:34:30;19.30;;;3.92;;
77625;SDS011;66794;43.764;10.436;2023-08-06T13:37:15;25.00;;;4.57;;
77625;SDS011;66794;43.764;10.436;2023-08-06T13:40:01;16.48;;;4.55;;
77625;SDS011;66794;43.764;10.436;2023-08-06T13:42:48;23.55;;;5.03;;
77625;SDS011;66794;43.764;10.436;2023-08-06T13:45:33;16.42;;;4.32;;
77625;SDS011;66794;43.764;10.436;2023-08-06T13:48:20;16.90;;;3.67;;
77625;SDS011;66794;43.764;10.436;2023-08-06T13:51:06;19.40;;;4.30;;
77625;SDS011;66794;43.764;10.436;2023-08-06T13:53:51;15.15;;;4.00;;
77625;SDS011;66794;43.764;10.436;2023-08-06T13:56:37;18.80;;;3.85;;
77625;SDS011;66794;43.764;10.436;2023-08-06T13:59:23;16.88;;;3.58;;
77625;SDS011;66794;43.764;10.436;2023-08-06T14:02:10;15.00;;;3.53;;
77625;SDS011;66794;43.764;10.436;2023-08-06T14:04:55;15.20;;;3.75;;
77625;SDS011;66794;43.764;10.436;2023-08-06T14:07:42;13.45;;;3.55;;
77625;SDS011;66794;43.764;10.436;2023-08-06T14:10:27;16.77;;;3.17;;
77625;SDS011;66794;43.764;10.436;2023-08-06T14:13:13;21.40;;;4.50;;
77625;SDS011;66794;43.764;10.436;2023-08-06T14:15:59;17.17;;;3.83;;
77625;SDS011;66794;43.764;10.436;2023-08-06T14:18:45;22.88;;;4.45;;
77625;SDS011;66794;43.764;10.436;2023-08-06T14:21:30;18.85;;;4.10;;
77625;SDS011;66794;43.764;10.436;2023-08-06T14:24:16;17.60;;;3.70;;
77625;SDS011;66794;43.764;10.436;2023-08-06T14:27:02;15.75;;;4.43;;
77625;SDS011;66794;43.764;10.436;2023-08-06T14:29:49;18.75;;;4.28;;
77625;SDS011;66794;43.764;10.436;2023-08-06T14:32:35;23.58;;;4.10;;
77625;SDS011;66794;43.764;10.436;2023-08-06T14:35:20;17.80;;;4.00;;
77625;SDS011;66794;43.764;10.436;2023-08-06T14:38:06;24.60;;;4.63;;
77625;SDS011;66794;43.764;10.436;2023-08-06T14:40:52;21.35;;;4.40;;
77625;SDS011;66794;43.764;10.436;2023-08-06T14:43:38;21.40;;;4.25;;
77625;SDS011;66794;43.764;10.436;2023-08-06T14:46:23;27.50;;;5.40;;
77625;SDS011;66794;43.764;10.436;2023-08-06T14:49:10;24.65;;;4.32;;
77625;SDS011;66794;43.764;10.436;2023-08-06T14:51:56;24.70;;;4.93;;
77625;SDS011;66794;43.764;10.436;2023-08-06T14:54:44;25.30;;;5.35;;
77625;SDS011;66794;43.764;10.436;2023-08-06T14:57:30;26.92;;;4.88;;
77625;SDS011;66794;43.764;10.436;2023-08-06T15:00:17;19.27;;;4.20;;
77625;SDS011;66794;43.764;10.436;2023-08-06T15:03:03;23.23;;;5.10;;
77625;SDS011;66794;43.764;10.436;2023-08-06T15:05:49;25.00;;;5.18;;
77625;SDS011;66794;43.764;10.436;2023-08-06T15:08:34;25.77;;;4.15;;
77625;SDS011;66794;43.764;10.436;2023-08-06T15:11:20;29.92;;;4.95;;
77625;SDS011;66794;43.764;10.436;2023-08-06T15:14:06;20.58;;;4.60;;
77625;SDS011;66794;43.764;10.436;2023-08-06T15:16:52;24.00;;;5.20;;
77625;SDS011;66794;43.764;10.436;2023-08-06T15:19:38;31.13;;;4.80;;
77625;SDS011;66794;43.764;10.436;2023-08-06T15:22:25;20.70;;;4.88;;
77625;SDS011;66794;43.764;10.436;2023-08-06T15:25:11;17.45;;;4.47;;
77625;SDS011;66794;43.764;10.436;2023-08-06T15:27:57;23.27;;;4.47;;
77625;SDS011;66794;43.764;10.436;2023-08-06T15:30:48;20.52;;;4.93;;
77625;SDS011;66794;43.764;10.436;2023-08-06T15:33:35;18.42;;;4.55;;
77625;SDS011;66794;43.764;10.436;2023-08-06T15:36:21;28.35;;;5.85;;
77625;SDS011;66794;43.764;10.436;2023-08-06T15:39:07;24.85;;;4.65;;
77625;SDS011;66794;43.764;10.436;2023-08-06T15:41:53;24.40;;;5.82;;
77625;SDS011;66794;43.764;10.436;2023-08-06T15:44:38;25.48;;;5.93;;
77625;SDS011;66794;43.764;10.436;2023-08-06T15:47:24;28.90;;;5.10;;
77625;SDS011;66794;43.764;10.436;2023-08-06T15:50:10;22.48;;;5.07;;
77625;SDS011;66794;43.764;10.436;2023-08-06T15:52:56;30.63;;;5.70;;
77625;SDS011;66794;43.764;10.436;2023-08-06T15:55:42;24.38;;;5.47;;
77625;SDS011;66794;43.764;10.436;2023-08-06T15:58:27;26.85;;;5.95;;
77625;SDS011;66794;43.764;10.436;2023-08-06T16:01:13;27.67;;;5.75;;
77625;SDS011;66794;43.764;10.436;2023-08-06T16:04:02;27.13;;;5.70;;
77625;SDS011;66794;43.764;10.436;2023-08-06T16:06:48;28.90;;;5.70;;
77625;SDS011;66794;43.764;10.436;2023-08-06T16:09:34;26.17;;;5.78;;
77625;SDS011;66794;43.764;10.436;2023-08-06T16:12:20;34.53;;;6.32;;
77625;SDS011;66794;43.764;10.436;2023-08-06T16:15:06;30.02;;;6.47;;
77625;SDS011;66794;43.764;10.436;2023-08-06T16:17:52;38.50;;;6.60;;
77625;SDS011;66794;43.764;10.436;2023-08-06T16:20:42;34.70;;;6.72;;
77625;SDS011;66794;43.764;10.436;2023-08-06T16:23:28;36.78;;;6.53;;